createdAt,value
2023-10-21T00:00:05.199Z,9.33
2023-10-21T00:01:02.711Z,9.29
2023-10-21T00:01:53.645Z,9.34
2023-10-21T00:02:44.526Z,9.29
2023-10-21T00:03:35.605Z,9.31
2023-10-21T00:04:27.102Z,9.19
2023-10-21T00:05:18.470Z,9.11
2023-10-21T00:06:09.413Z,9.08
2023-10-21T00:07:00.287Z,9.09
2023-10-21T00:07:51.203Z,9.15
2023-10-21T00:08:42.178Z,9.19
2023-10-21T00:09:33.401Z,9.11
2023-10-21T00:10:24.558Z,9.15
2023-10-21T00:11:17.286Z,9.07
2023-10-21T00:12:10.006Z,9.06
2023-10-21T00:13:01.287Z,9.06
2023-10-21T00:13:51.759Z,8.98
2023-10-21T00:14:42.755Z,9.00
2023-10-21T00:15:35.413Z,8.93
2023-10-21T00:16:26.099Z,8.91
2023-10-21T00:17:17.202Z,8.96
2023-10-21T00:18:08.231Z,8.96
2023-10-21T00:18:59.248Z,8.97
2023-10-21T00:19:51.697Z,8.94
2023-10-21T00:20:42.576Z,8.96
2023-10-21T00:21:33.420Z,8.98
2023-10-21T00:22:24.222Z,8.97
2023-10-21T00:23:15.072Z,8.97
2023-10-21T00:24:06.381Z,8.95
2023-10-21T00:24:57.561Z,8.89
2023-10-21T00:25:48.363Z,8.85
2023-10-21T00:26:48.504Z,8.79
2023-10-21T00:27:40.053Z,8.71
2023-10-21T00:28:31.218Z,8.70
2023-10-21T00:29:22.252Z,8.80
2023-10-21T00:30:14.536Z,8.79
2023-10-21T00:31:05.558Z,8.86
2023-10-21T00:31:56.608Z,8.94
2023-10-21T00:32:47.455Z,8.91
2023-10-21T00:33:38.299Z,8.91
2023-10-21T00:34:29.028Z,8.90
2023-10-21T00:35:19.769Z,8.90
2023-10-21T00:36:10.734Z,8.86
2023-10-21T00:37:01.564Z,8.85
2023-10-21T00:37:52.350Z,8.86
2023-10-21T00:38:43.304Z,8.86
2023-10-21T00:39:35.773Z,8.82
2023-10-21T00:40:26.910Z,8.90
2023-10-21T00:41:17.767Z,8.89
2023-10-21T00:42:08.713Z,8.97
2023-10-21T00:42:59.361Z,8.95
2023-10-21T00:43:50.208Z,8.94
2023-10-21T00:44:41.366Z,8.89
2023-10-21T00:45:32.325Z,8.95
2023-10-21T00:46:27.668Z,8.88
2023-10-21T00:47:18.546Z,8.93
2023-10-21T00:48:09.373Z,8.95
2023-10-21T00:49:00.912Z,8.90
2023-10-21T00:49:51.559Z,8.95
2023-10-21T00:50:42.489Z,9.00
2023-10-21T00:51:34.822Z,9.09
2023-10-21T00:52:26.529Z,9.11
2023-10-21T00:53:17.739Z,9.14
2023-10-21T00:54:08.946Z,9.14
2023-10-21T00:55:03.180Z,9.26
2023-10-21T00:55:53.991Z,9.37
2023-10-21T00:56:44.666Z,9.44
2023-10-21T00:57:37.560Z,9.54
2023-10-21T00:58:32.202Z,9.60
2023-10-21T00:59:24.860Z,9.61
2023-10-21T01:00:17.937Z,9.67
2023-10-21T01:01:09.724Z,9.78
2023-10-21T01:02:00.683Z,9.86
2023-10-21T01:02:51.513Z,9.83
2023-10-21T01:03:42.750Z,9.90
2023-10-21T01:04:33.661Z,9.95
2023-10-21T01:05:24.665Z,9.93
2023-10-21T01:06:16.211Z,9.97
2023-10-21T01:07:07.129Z,10.05
2023-10-21T01:08:00.962Z,10.07
2023-10-21T01:08:51.786Z,10.05
2023-10-21T01:09:42.803Z,10.07
2023-10-21T01:10:33.792Z,10.14
2023-10-21T01:11:24.844Z,10.22
2023-10-21T01:12:15.747Z,10.40
2023-10-21T01:13:06.401Z,10.45
2023-10-21T01:13:57.466Z,10.46
2023-10-21T01:14:48.634Z,10.49
2023-10-21T01:15:39.654Z,10.50
2023-10-21T01:16:31.056Z,10.55
2023-10-21T01:17:21.887Z,10.57
2023-10-21T01:18:13.663Z,10.59
2023-10-21T01:19:08.362Z,10.59
2023-10-21T01:20:00.320Z,10.57
2023-10-21T01:20:53.623Z,10.64
2023-10-21T01:21:44.454Z,10.70
2023-10-21T01:22:35.210Z,10.70
2023-10-21T01:23:26.580Z,10.75
2023-10-21T01:24:17.433Z,10.82
2023-10-21T01:25:08.972Z,10.82
2023-10-21T01:26:00.700Z,10.80
2023-10-21T01:26:52.194Z,10.89
2023-10-21T01:27:42.944Z,10.89
2023-10-21T01:28:34.230Z,10.92
2023-10-21T01:29:25.696Z,10.96
2023-10-21T01:30:17.499Z,10.95
2023-10-21T01:31:08.183Z,10.96
2023-10-21T01:31:58.912Z,11.02
2023-10-21T01:32:50.153Z,11.04
2023-10-21T01:33:41.226Z,11.01
2023-10-21T01:34:31.891Z,11.00
2023-10-21T01:35:25.561Z,10.99
2023-10-21T01:36:16.761Z,10.99
2023-10-21T01:37:07.544Z,11.02
2023-10-21T01:37:58.375Z,11.00
2023-10-21T01:38:49.388Z,11.07
2023-10-21T01:39:40.518Z,11.02
2023-10-21T01:40:31.143Z,11.00
2023-10-21T01:41:22.306Z,10.99
2023-10-21T01:42:13.208Z,11.05
2023-10-21T01:43:04.079Z,11.03
2023-10-21T01:43:54.947Z,11.04
2023-10-21T01:44:45.748Z,11.01
2023-10-21T01:45:39.584Z,11.01
2023-10-21T01:46:30.717Z,11.07
2023-10-21T01:47:21.525Z,11.07
2023-10-21T01:48:12.717Z,11.03
2023-10-21T01:49:05.383Z,11.07
2023-10-21T01:49:55.874Z,11.03
2023-10-21T01:50:46.740Z,11.02
2023-10-21T01:51:37.500Z,11.01
2023-10-21T01:52:28.194Z,11.01
2023-10-21T01:53:19.033Z,10.96
2023-10-21T01:54:10.138Z,10.91
2023-10-21T01:55:01.145Z,10.94
2023-10-21T01:56:00.987Z,10.96
2023-10-21T01:56:53.528Z,10.95
2023-10-21T01:57:44.509Z,11.00
2023-10-21T01:58:35.499Z,11.02
2023-10-21T01:59:26.382Z,11.04
2023-10-21T02:00:20.475Z,11.06
2023-10-21T02:01:12.752Z,11.12
2023-10-21T02:02:04.130Z,11.08
2023-10-21T02:02:56.835Z,11.06
2023-10-21T02:03:48.423Z,11.01
2023-10-21T02:04:39.362Z,10.98
2023-10-21T02:05:30.563Z,10.97
2023-10-21T02:06:21.836Z,11.00
2023-10-21T02:07:12.694Z,11.02
2023-10-21T02:08:03.861Z,11.01
2023-10-21T02:08:55.108Z,10.97
2023-10-21T02:09:45.820Z,10.98
2023-10-21T02:10:40.260Z,10.96
2023-10-21T02:11:31.419Z,10.96
2023-10-21T02:12:22.304Z,10.94
2023-10-21T02:13:13.929Z,10.89
2023-10-21T02:14:04.985Z,10.86
2023-10-21T02:14:55.699Z,10.84
2023-10-21T02:15:46.709Z,10.88
2023-10-21T02:16:37.608Z,10.88
2023-10-21T02:17:28.615Z,10.91
2023-10-21T02:18:19.791Z,10.88
2023-10-21T02:19:10.671Z,10.92
2023-10-21T02:20:01.484Z,10.85
2023-10-21T02:20:54.581Z,10.82
2023-10-21T02:21:46.049Z,10.82
2023-10-21T02:22:37.294Z,10.80
2023-10-21T02:23:28.351Z,10.78
2023-10-21T02:24:19.125Z,10.80
2023-10-21T02:25:15.493Z,10.82
2023-10-21T02:26:10.297Z,10.82
2023-10-21T02:27:00.987Z,10.78
2023-10-21T02:27:51.840Z,10.72
2023-10-21T02:28:42.719Z,10.78
2023-10-21T02:29:33.645Z,10.78
2023-10-21T02:30:24.723Z,10.75
2023-10-21T02:31:18.108Z,10.75
2023-10-21T02:32:09.308Z,10.78
2023-10-21T02:33:00.279Z,10.82
2023-10-21T02:33:51.241Z,10.81
2023-10-21T02:34:42.810Z,10.76
2023-10-21T02:35:34.495Z,10.75
2023-10-21T02:36:26.031Z,10.74
2023-10-21T02:37:16.623Z,10.73
2023-10-21T02:38:07.443Z,10.69
2023-10-21T02:38:58.431Z,10.79
2023-10-21T02:39:49.419Z,10.82
2023-10-21T02:40:43.774Z,10.78
2023-10-21T02:41:34.830Z,10.72
2023-10-21T02:42:25.798Z,10.71
2023-10-21T02:43:16.441Z,10.68
2023-10-21T02:44:07.833Z,10.61
2023-10-21T02:44:58.986Z,10.69
2023-10-21T02:45:50.069Z,10.73
2023-10-21T02:46:40.834Z,10.65
2023-10-21T02:47:35.246Z,10.61
2023-10-21T02:48:26.389Z,10.58
2023-10-21T02:49:17.433Z,10.65
2023-10-21T02:50:08.670Z,10.55
2023-10-21T02:50:59.250Z,10.59
2023-10-21T02:51:51.006Z,10.63
2023-10-21T02:52:41.701Z,10.68
2023-10-21T02:53:32.659Z,10.66
2023-10-21T02:54:23.763Z,10.61
2023-10-21T02:55:14.650Z,10.56
2023-10-21T02:56:08.800Z,10.60
2023-10-21T02:56:59.997Z,10.58
2023-10-21T02:57:50.683Z,10.54
2023-10-21T02:58:41.648Z,10.57
2023-10-21T02:59:32.787Z,10.56
2023-10-21T03:00:23.842Z,10.59
2023-10-21T03:01:17.358Z,10.55
2023-10-21T03:02:08.576Z,10.56
2023-10-21T03:03:00.627Z,10.56
2023-10-21T03:03:52.844Z,10.51
2023-10-21T03:04:43.979Z,10.49
2023-10-21T03:05:34.959Z,10.49
2023-10-21T03:06:25.785Z,10.47
2023-10-21T03:07:16.647Z,10.42
2023-10-21T03:08:07.580Z,10.45
2023-10-21T03:08:58.714Z,10.42
2023-10-21T03:09:49.567Z,10.42
2023-10-21T03:10:40.389Z,10.34
2023-10-21T03:11:31.829Z,10.32
2023-10-21T03:12:23.197Z,10.39
2023-10-21T03:13:14.180Z,10.38
2023-10-21T03:14:05.358Z,10.41
2023-10-21T03:14:57.158Z,10.41
2023-10-21T03:15:47.958Z,10.38
2023-10-21T03:16:38.830Z,10.39
2023-10-21T03:17:30.453Z,10.36
2023-10-21T03:18:21.758Z,10.31
2023-10-21T03:19:12.928Z,10.27
2023-10-21T03:20:04.344Z,10.22
2023-10-21T03:20:55.134Z,10.20
2023-10-21T03:21:46.451Z,10.24
2023-10-21T03:22:37.226Z,10.25
2023-10-21T03:23:28.075Z,10.26
2023-10-21T03:24:18.923Z,10.24
2023-10-21T03:25:09.870Z,10.21
2023-10-21T03:26:02.183Z,10.19
2023-10-21T03:26:52.992Z,10.22
2023-10-21T03:27:43.834Z,10.24
2023-10-21T03:28:35.854Z,10.22
2023-10-21T03:29:27.409Z,10.21
2023-10-21T03:30:18.657Z,10.24
2023-10-21T03:31:10.102Z,10.25
2023-10-21T03:32:00.855Z,10.24
2023-10-21T03:32:51.826Z,10.25
2023-10-21T03:33:42.686Z,10.30
2023-10-21T03:34:34.847Z,10.39
2023-10-21T03:35:26.046Z,10.39
2023-10-21T03:36:17.346Z,10.35
2023-10-21T03:37:08.780Z,10.39
2023-10-21T03:38:00.997Z,10.46
2023-10-21T03:38:52.620Z,10.46
2023-10-21T03:39:43.690Z,10.49
2023-10-21T03:40:35.102Z,10.47
2023-10-21T03:41:26.293Z,10.48
2023-10-21T03:42:17.699Z,10.55
2023-10-21T03:43:08.629Z,10.55
2023-10-21T03:43:59.254Z,10.58
2023-10-21T03:44:50.171Z,10.58
2023-10-21T03:45:43.194Z,10.62
2023-10-21T03:46:33.963Z,10.57
2023-10-21T03:47:24.941Z,10.56
2023-10-21T03:48:15.984Z,10.57
2023-10-21T03:49:06.837Z,10.52
2023-10-21T03:49:58.695Z,10.54
2023-10-21T03:50:50.032Z,10.57
2023-10-21T03:51:40.986Z,10.58
2023-10-21T03:52:31.775Z,10.62
2023-10-21T03:53:22.972Z,10.60
2023-10-21T03:54:14.006Z,10.62
2023-10-21T03:55:05.755Z,10.65
2023-10-21T03:55:56.473Z,10.62
2023-10-21T03:56:47.845Z,10.68
2023-10-21T03:57:38.751Z,10.67
2023-10-21T03:58:30.232Z,10.73
2023-10-21T03:59:21.118Z,10.77
2023-10-21T04:00:13.389Z,10.86
2023-10-21T04:01:06.308Z,10.82
2023-10-21T04:01:58.819Z,10.83
2023-10-21T04:02:49.865Z,10.86
2023-10-21T04:03:40.761Z,10.90
2023-10-21T04:04:31.911Z,10.85
2023-10-21T04:05:22.775Z,10.90
2023-10-21T04:06:15.257Z,10.95
2023-10-21T04:07:06.884Z,10.97
2023-10-21T04:07:57.957Z,11.00
2023-10-21T04:08:48.891Z,11.00
2023-10-21T04:09:39.615Z,11.02
2023-10-21T04:10:30.486Z,11.07
2023-10-21T04:11:22.313Z,11.15
2023-10-21T04:12:15.779Z,11.22
2023-10-21T04:13:07.085Z,11.20
2023-10-21T04:13:57.947Z,11.22
2023-10-21T04:14:48.893Z,11.25
2023-10-21T04:15:42.572Z,11.22
2023-10-21T04:16:34.022Z,11.21
2023-10-21T04:17:24.924Z,11.21
2023-10-21T04:18:15.911Z,11.23
2023-10-21T04:19:06.586Z,11.27
2023-10-21T04:19:57.532Z,11.27
2023-10-21T04:20:48.543Z,11.26
2023-10-21T04:21:39.455Z,11.25
2023-10-21T04:22:31.298Z,11.35
2023-10-21T04:23:22.402Z,11.34
2023-10-21T04:24:13.065Z,11.34
2023-10-21T04:25:04.299Z,11.32
2023-10-21T04:25:55.124Z,11.31
2023-10-21T04:26:46.095Z,11.27
2023-10-21T04:27:37.087Z,11.29
2023-10-21T04:28:27.707Z,11.35
2023-10-21T04:29:18.557Z,11.39
2023-10-21T04:30:09.820Z,11.34
2023-10-21T04:31:00.817Z,11.29
2023-10-21T04:31:51.560Z,11.30
2023-10-21T04:32:42.495Z,11.35
2023-10-21T04:33:33.485Z,11.30
2023-10-21T04:34:24.370Z,11.32
2023-10-21T04:35:15.384Z,11.30
2023-10-21T04:36:06.278Z,11.30
2023-10-21T04:36:58.287Z,11.30
2023-10-21T04:37:49.441Z,11.29
2023-10-21T04:38:39.821Z,11.35
2023-10-21T04:39:31.755Z,11.41
2023-10-21T04:40:22.860Z,11.52
2023-10-21T04:41:13.609Z,11.50
2023-10-21T04:42:05.868Z,11.55
2023-10-21T04:42:57.036Z,11.59
2023-10-21T04:43:48.341Z,11.60
2023-10-21T04:44:39.542Z,11.63
2023-10-21T04:45:30.709Z,11.67
2023-10-21T04:46:21.398Z,11.64
2023-10-21T04:47:13.249Z,11.69
2023-10-21T04:48:04.916Z,11.66
2023-10-21T04:48:55.893Z,11.68
2023-10-21T04:49:47.019Z,11.74
2023-10-21T04:50:37.970Z,11.85
2023-10-21T04:51:28.922Z,11.82
2023-10-21T04:52:20.401Z,11.87
2023-10-21T04:53:11.306Z,11.86
2023-10-21T04:54:02.130Z,11.83
2023-10-21T04:54:52.935Z,11.78
2023-10-21T04:55:43.829Z,11.78
2023-10-21T04:56:34.697Z,11.80
2023-10-21T04:57:25.557Z,11.77
2023-10-21T04:58:16.369Z,11.84
2023-10-21T04:59:07.309Z,11.86
2023-10-21T04:59:58.126Z,11.88
2023-10-21T05:00:48.871Z,11.89
2023-10-21T05:01:39.872Z,11.88
2023-10-21T05:02:30.869Z,11.88
2023-10-21T05:03:22.144Z,11.89
2023-10-21T05:04:13.293Z,11.89
2023-10-21T05:05:04.428Z,11.89
2023-10-21T05:05:55.145Z,11.91
2023-10-21T05:06:45.855Z,11.90
2023-10-21T05:07:36.671Z,11.89
2023-10-21T05:08:27.523Z,11.87
2023-10-21T05:09:18.754Z,11.94
2023-10-21T05:10:09.732Z,12.00
2023-10-21T05:11:00.908Z,11.97
2023-10-21T05:11:51.873Z,11.97
2023-10-21T05:12:42.633Z,12.00
2023-10-21T05:13:34.262Z,11.97
2023-10-21T05:14:24.920Z,11.98
2023-10-21T05:15:16.876Z,12.02
2023-10-21T05:16:07.508Z,12.03
2023-10-21T05:16:58.460Z,11.99
2023-10-21T05:17:49.489Z,12.05
2023-10-21T05:18:40.441Z,12.09
2023-10-21T05:19:31.709Z,12.11
2023-10-21T05:20:22.490Z,12.15
2023-10-21T05:21:13.498Z,12.15
2023-10-21T05:22:04.399Z,12.13
2023-10-21T05:22:54.976Z,12.15
2023-10-21T05:23:46.180Z,12.22
2023-10-21T05:24:36.939Z,12.20
2023-10-21T05:25:28.150Z,12.22
2023-10-21T05:26:20.190Z,12.21
2023-10-21T05:27:11.327Z,12.24
2023-10-21T05:28:02.276Z,12.25
2023-10-21T05:28:53.075Z,12.30
2023-10-21T05:29:43.896Z,12.31
2023-10-21T05:30:35.272Z,12.26
2023-10-21T05:31:26.401Z,12.38
2023-10-21T05:32:17.080Z,12.43
2023-10-21T05:33:09.979Z,12.42
2023-10-21T05:34:01.694Z,12.44
2023-10-21T05:34:52.603Z,12.43
2023-10-21T05:35:43.725Z,12.42
2023-10-21T05:36:35.035Z,12.40
2023-10-21T05:37:27.257Z,12.41
2023-10-21T05:38:17.980Z,12.44
2023-10-21T05:39:08.970Z,12.43
2023-10-21T05:40:02.256Z,12.35
2023-10-21T05:40:53.516Z,12.38
2023-10-21T05:41:44.395Z,12.42
2023-10-21T05:42:35.272Z,12.43
2023-10-21T05:43:26.150Z,12.44
2023-10-21T05:44:17.025Z,12.50
2023-10-21T05:45:09.757Z,12.48
2023-10-21T05:46:04.346Z,12.48
2023-10-21T05:46:55.037Z,12.47
2023-10-21T05:47:47.097Z,12.50
2023-10-21T05:48:37.799Z,12.47
2023-10-21T05:49:28.542Z,12.45
2023-10-21T05:50:20.938Z,12.38
2023-10-21T05:51:11.472Z,12.38
2023-10-21T05:52:02.254Z,12.39
2023-10-21T05:52:53.236Z,12.46
2023-10-21T05:53:44.266Z,12.48
2023-10-21T05:54:35.434Z,12.52
2023-10-21T05:55:26.577Z,12.55
2023-10-21T05:56:17.654Z,12.57
2023-10-21T05:57:08.901Z,12.53
2023-10-21T05:57:59.970Z,12.57
2023-10-21T05:58:51.898Z,12.56
2023-10-21T05:59:42.831Z,12.59
2023-10-21T06:00:33.770Z,12.59
2023-10-21T06:01:24.654Z,12.54
2023-10-21T06:02:15.471Z,12.58
2023-10-21T06:03:09.284Z,12.58
2023-10-21T06:04:00.412Z,12.65
2023-10-21T06:04:51.449Z,12.73
2023-10-21T06:05:42.813Z,12.68
2023-10-21T06:06:34.244Z,12.74
2023-10-21T06:07:25.190Z,12.68
2023-10-21T06:08:16.103Z,12.73
2023-10-21T06:09:06.896Z,12.74
2023-10-21T06:09:57.773Z,12.73
2023-10-21T06:10:48.664Z,12.77
2023-10-21T06:11:39.597Z,12.77
2023-10-21T06:12:30.557Z,12.78
2023-10-21T06:13:21.565Z,12.76
2023-10-21T06:14:12.121Z,12.83
2023-10-21T06:15:03.217Z,12.80
2023-10-21T06:15:54.215Z,12.74
2023-10-21T06:16:45.950Z,12.78
2023-10-21T06:17:36.660Z,12.75
2023-10-21T06:18:28.166Z,12.80
2023-10-21T06:19:18.898Z,12.82
2023-10-21T06:20:09.870Z,12.82
2023-10-21T06:21:00.557Z,12.82
2023-10-21T06:21:51.374Z,12.81
2023-10-21T06:22:42.312Z,12.81
2023-10-21T06:23:33.235Z,12.79
2023-10-21T06:24:24.034Z,12.82
2023-10-21T06:25:15.289Z,12.82
2023-10-21T06:26:11.391Z,12.79
2023-10-21T06:27:02.339Z,12.82
2023-10-21T06:27:53.479Z,12.81
2023-10-21T06:28:44.700Z,12.85
2023-10-21T06:29:36.172Z,12.86
2023-10-21T06:30:27.363Z,12.88
2023-10-21T06:31:18.026Z,12.89
2023-10-21T06:32:10.109Z,12.90
2023-10-21T06:33:01.117Z,12.95
2023-10-21T06:33:52.160Z,13.05
2023-10-21T06:34:43.117Z,13.11
2023-10-21T06:35:33.831Z,13.20
2023-10-21T06:36:24.698Z,13.24
2023-10-21T06:37:15.664Z,13.28
2023-10-21T06:38:07.755Z,13.30
2023-10-21T06:38:58.841Z,13.31
2023-10-21T06:39:49.820Z,13.36
2023-10-21T06:40:52.316Z,13.67
2023-10-21T06:41:51.456Z,13.85
2023-10-21T06:42:42.266Z,14.02
2023-10-21T06:43:33.152Z,14.15
2023-10-21T06:44:24.794Z,14.14
2023-10-21T06:45:15.643Z,14.09
2023-10-21T06:46:07.565Z,14.24
2023-10-21T06:46:58.290Z,14.19
2023-10-21T06:47:48.891Z,14.18
2023-10-21T06:48:39.882Z,14.10
2023-10-21T06:49:30.697Z,14.08
2023-10-21T06:50:21.624Z,14.14
2023-10-21T06:51:14.380Z,14.20
2023-10-21T06:52:05.887Z,14.20
2023-10-21T06:52:56.506Z,14.20
2023-10-21T06:53:47.332Z,14.25
2023-10-21T06:54:39.104Z,14.26
2023-10-21T06:55:29.696Z,14.42
2023-10-21T06:56:23.094Z,14.66
2023-10-21T06:57:21.316Z,14.60
2023-10-21T06:58:13.156Z,14.80
2023-10-21T06:59:04.887Z,15.18
2023-10-21T06:59:56.872Z,15.36
2023-10-21T07:00:47.861Z,15.80
2023-10-21T07:01:38.777Z,16.12
2023-10-21T07:02:30.003Z,16.13
2023-10-21T07:03:21.120Z,16.23
2023-10-21T07:04:11.912Z,16.28
2023-10-21T07:05:02.588Z,16.07
2023-10-21T07:05:53.675Z,15.86
2023-10-21T07:06:46.554Z,15.83
2023-10-21T07:07:39.457Z,15.76
2023-10-21T07:08:30.356Z,15.79
2023-10-21T07:09:21.094Z,15.81
2023-10-21T07:10:11.941Z,15.97
2023-10-21T07:11:04.166Z,15.99
2023-10-21T07:11:55.557Z,15.86
2023-10-21T07:12:46.725Z,15.65
2023-10-21T07:13:37.919Z,15.63
2023-10-21T07:14:28.875Z,15.71
2023-10-21T07:15:20.490Z,15.84
2023-10-21T07:16:11.938Z,15.80
2023-10-21T07:17:02.927Z,15.70
2023-10-21T07:17:54.161Z,15.54
2023-10-21T07:18:45.524Z,15.44
2023-10-21T07:19:36.895Z,15.55
2023-10-21T07:20:28.029Z,15.89
2023-10-21T07:21:21.099Z,16.24
2023-10-21T07:22:14.636Z,16.46
2023-10-21T07:23:05.844Z,16.50
2023-10-21T07:23:56.781Z,16.26
2023-10-21T07:24:47.594Z,16.27
2023-10-21T07:25:39.682Z,16.63
2023-10-21T07:26:30.447Z,16.81
2023-10-21T07:27:21.101Z,17.12
2023-10-21T07:28:11.974Z,17.20
2023-10-21T07:29:04.029Z,17.38
2023-10-21T07:29:56.397Z,17.68
2023-10-21T07:30:47.475Z,17.79
2023-10-21T07:31:39.271Z,17.60
2023-10-21T07:32:30.597Z,17.46
2023-10-21T07:33:24.552Z,17.49
2023-10-21T07:34:15.477Z,17.32
2023-10-21T07:35:06.817Z,17.28
2023-10-21T07:35:57.678Z,17.23
2023-10-21T07:36:48.780Z,17.42
2023-10-21T07:37:39.965Z,17.49
2023-10-21T07:38:31.906Z,17.68
2023-10-21T07:39:22.868Z,17.79
2023-10-21T07:40:15.155Z,17.79
2023-10-21T07:41:13.657Z,17.76
2023-10-21T07:42:05.663Z,17.83
2023-10-21T07:42:56.622Z,18.02
2023-10-21T07:43:47.801Z,18.14
2023-10-21T07:44:39.209Z,18.07
2023-10-21T07:45:30.664Z,18.12
2023-10-21T07:46:21.682Z,18.13
2023-10-21T07:47:12.366Z,18.12
2023-10-21T07:48:04.209Z,18.16
2023-10-21T07:48:55.239Z,18.34
2023-10-21T07:49:46.070Z,18.38
2023-10-21T07:50:37.036Z,18.34
2023-10-21T07:51:31.111Z,18.42
2023-10-21T07:52:24.393Z,18.15
2023-10-21T07:53:15.889Z,18.10
2023-10-21T07:54:06.866Z,18.12
2023-10-21T07:54:57.554Z,18.02
2023-10-21T07:55:51.881Z,17.92
2023-10-21T07:56:50.960Z,17.67
2023-10-21T07:57:42.205Z,17.55
2023-10-21T07:58:34.104Z,17.33
2023-10-21T07:59:24.909Z,17.06
2023-10-21T08:00:16.477Z,16.95
2023-10-21T08:01:07.324Z,16.95
2023-10-21T08:02:00.152Z,16.91
2023-10-21T08:02:53.107Z,16.86
2023-10-21T08:03:45.689Z,16.78
2023-10-21T08:04:37.094Z,16.64
2023-10-21T08:05:29.849Z,16.70
2023-10-21T08:06:20.892Z,16.60
2023-10-21T08:07:12.223Z,16.70
2023-10-21T08:08:04.609Z,16.67
2023-10-21T08:08:55.765Z,16.65
2023-10-21T08:09:48.504Z,16.57
2023-10-21T08:10:39.054Z,16.58
2023-10-21T08:11:30.072Z,16.63
2023-10-21T08:12:20.995Z,16.61
2023-10-21T08:13:11.773Z,16.63
2023-10-21T08:14:02.722Z,16.65
2023-10-21T08:14:53.570Z,16.56
2023-10-21T08:15:44.482Z,16.42
2023-10-21T08:16:35.586Z,16.41
2023-10-21T08:17:26.116Z,16.38
2023-10-21T08:18:16.948Z,16.37
2023-10-21T08:19:07.858Z,16.41
2023-10-21T08:19:58.694Z,16.44
2023-10-21T08:20:49.895Z,16.45
2023-10-21T08:21:41.977Z,16.46
2023-10-21T08:22:34.741Z,16.50
2023-10-21T08:23:25.638Z,16.53
2023-10-21T08:24:17.132Z,16.54
2023-10-21T08:25:09.341Z,16.47
2023-10-21T08:26:00.086Z,16.49
2023-10-21T08:26:51.047Z,16.53
2023-10-21T08:27:41.793Z,16.52
2023-10-21T08:28:32.834Z,16.47
2023-10-21T08:29:23.659Z,16.46
2023-10-21T08:30:16.170Z,16.46
2023-10-21T08:31:09.485Z,16.53
2023-10-21T08:32:00.584Z,16.54
2023-10-21T08:32:52.414Z,16.52
2023-10-21T08:33:45.496Z,16.53
2023-10-21T08:34:38.322Z,16.54
2023-10-21T08:35:29.724Z,16.59
2023-10-21T08:36:22.094Z,16.56
2023-10-21T08:37:13.494Z,16.58
2023-10-21T08:38:04.618Z,16.57
2023-10-21T08:38:57.254Z,16.59
2023-10-21T08:39:49.463Z,16.54
2023-10-21T08:40:40.663Z,16.57
2023-10-21T08:41:36.683Z,16.53
2023-10-21T08:42:32.684Z,16.48
2023-10-21T08:43:42.985Z,16.62
2023-10-21T08:44:34.894Z,16.79
2023-10-21T08:45:26.298Z,16.85
2023-10-21T08:46:18.795Z,16.77
2023-10-21T08:47:12.196Z,16.71
2023-10-21T08:48:03.326Z,16.88
2023-10-21T08:48:54.829Z,16.93
2023-10-21T08:49:47.152Z,17.03
2023-10-21T08:50:39.827Z,17.10
2023-10-21T08:51:31.728Z,17.10
2023-10-21T08:52:22.696Z,16.99
2023-10-21T08:53:13.589Z,16.96
2023-10-21T08:54:05.284Z,16.91
2023-10-21T08:54:56.885Z,16.82
2023-10-21T08:55:49.861Z,16.84
2023-10-21T08:56:41.100Z,16.87
2023-10-21T08:57:31.866Z,16.97
2023-10-21T08:58:29.364Z,16.96
2023-10-21T08:59:20.406Z,16.93
2023-10-21T09:00:11.948Z,16.92
2023-10-21T09:01:03.245Z,16.93
2023-10-21T09:01:54.282Z,16.97
2023-10-21T09:02:45.030Z,17.02
2023-10-21T09:03:36.306Z,17.05
2023-10-21T09:04:27.983Z,17.09
2023-10-21T09:05:18.937Z,17.09
2023-10-21T09:06:14.391Z,17.11
2023-10-21T09:07:06.355Z,17.04
2023-10-21T09:07:57.209Z,16.97
2023-10-21T09:08:49.245Z,16.87
2023-10-21T09:09:40.020Z,16.84
2023-10-21T09:10:34.032Z,16.78
2023-10-21T09:11:26.988Z,16.81
2023-10-21T09:12:19.059Z,16.80
2023-10-21T09:13:15.239Z,16.79
2023-10-21T09:14:07.195Z,16.74
2023-10-21T09:14:58.834Z,16.70
2023-10-21T09:15:50.237Z,16.71
2023-10-21T09:16:41.002Z,16.73
2023-10-21T09:17:39.718Z,16.77
2023-10-21T09:18:30.988Z,16.73
2023-10-21T09:19:26.854Z,16.75
2023-10-21T09:20:19.902Z,16.80
2023-10-21T09:21:10.597Z,16.90
2023-10-21T09:22:02.945Z,17.13
2023-10-21T09:23:03.559Z,17.33
2023-10-21T09:23:54.765Z,17.45
2023-10-21T09:24:47.306Z,17.59
2023-10-21T09:25:38.736Z,17.67
2023-10-21T09:26:34.561Z,17.69
2023-10-21T09:27:25.469Z,17.68
2023-10-21T09:28:22.448Z,17.65
2023-10-21T09:29:21.441Z,17.58
2023-10-21T09:30:16.939Z,17.47
2023-10-21T09:31:07.755Z,17.40
2023-10-21T09:31:59.418Z,17.36
2023-10-21T09:32:50.680Z,17.45
2023-10-21T09:33:59.920Z,17.41
2023-10-21T09:34:51.595Z,17.40
2023-10-21T09:35:42.978Z,17.49
2023-10-21T09:36:41.394Z,17.53
2023-10-21T09:37:32.992Z,17.53
2023-10-21T09:38:24.353Z,17.55
2023-10-21T09:39:15.543Z,17.52
2023-10-21T09:40:07.680Z,17.55
2023-10-21T09:40:59.160Z,17.56
2023-10-21T09:41:50.341Z,17.54
2023-10-21T09:42:45.353Z,17.64
2023-10-21T09:43:39.943Z,17.75
2023-10-21T09:44:31.849Z,17.73
2023-10-21T09:45:24.642Z,17.61
2023-10-21T09:46:18.218Z,17.55
2023-10-21T09:47:09.477Z,17.54
2023-10-21T09:48:04.250Z,17.57
2023-10-21T09:49:00.765Z,17.59
2023-10-21T09:49:55.520Z,17.61
2023-10-21T09:50:55.091Z,17.57
2023-10-21T09:52:10.976Z,17.53
2023-10-21T09:53:16.793Z,17.46
2023-10-21T09:54:13.532Z,17.41
2023-10-21T09:55:11.686Z,17.43
2023-10-21T09:56:03.840Z,17.36
2023-10-21T09:56:55.462Z,17.34
2023-10-21T09:57:47.277Z,17.39
2023-10-21T09:58:41.397Z,17.42
2023-10-21T09:59:33.103Z,17.50
2023-10-21T10:00:26.247Z,17.49
2023-10-21T10:01:24.576Z,17.61
2023-10-21T10:02:17.043Z,17.61
2023-10-21T10:03:08.392Z,17.61
2023-10-21T10:04:00.943Z,17.58
2023-10-21T10:04:54.859Z,17.69
2023-10-21T10:05:47.384Z,17.77
2023-10-21T10:06:43.834Z,17.74
2023-10-21T10:07:41.081Z,17.80
2023-10-21T10:08:34.637Z,17.88
2023-10-21T10:09:28.711Z,17.92
2023-10-21T10:10:23.002Z,17.84
2023-10-21T10:11:19.749Z,17.78
2023-10-21T10:12:17.574Z,17.81
2023-10-21T10:13:10.399Z,17.76
2023-10-21T10:14:03.355Z,17.80
2023-10-21T10:14:55.081Z,17.80
2023-10-21T10:15:46.414Z,17.85
2023-10-21T10:16:43.167Z,17.92
2023-10-21T10:17:53.156Z,17.88
2023-10-21T10:18:48.753Z,17.87
2023-10-21T10:19:43.766Z,17.87
2023-10-21T10:20:44.530Z,17.83
2023-10-21T10:21:37.716Z,17.85
2023-10-21T10:22:32.302Z,17.97
2023-10-21T10:23:26.728Z,18.08
2023-10-21T10:24:18.041Z,18.20
2023-10-21T10:25:11.675Z,18.29
2023-10-21T10:26:02.428Z,18.39
2023-10-21T10:26:55.776Z,18.47
2023-10-21T10:27:47.557Z,18.43
2023-10-21T10:28:39.819Z,18.57
2023-10-21T10:29:31.172Z,18.57
2023-10-21T10:30:22.313Z,18.59
2023-10-21T10:31:13.878Z,18.56
2023-10-21T10:32:18.188Z,18.53
2023-10-21T10:33:14.465Z,18.59
2023-10-21T10:34:08.531Z,18.47
2023-10-21T10:34:59.381Z,18.41
2023-10-21T10:35:55.288Z,18.41
2023-10-21T10:36:45.951Z,18.27
2023-10-21T10:37:38.293Z,18.25
2023-10-21T10:38:32.799Z,18.23
2023-10-21T10:39:39.993Z,18.20
2023-10-21T10:40:41.506Z,18.20
2023-10-21T10:41:32.870Z,18.17
2023-10-21T10:42:29.443Z,18.11
2023-10-21T10:43:20.930Z,18.20
2023-10-21T10:44:11.996Z,18.21
2023-10-21T10:45:04.357Z,18.33
2023-10-21T10:45:57.231Z,18.27
2023-10-21T10:46:48.050Z,18.29
2023-10-21T10:47:40.982Z,18.21
2023-10-21T10:48:31.884Z,18.32
2023-10-21T10:49:23.376Z,18.32
2023-10-21T10:50:20.520Z,18.30
2023-10-21T10:51:15.804Z,18.23
2023-10-21T10:52:07.719Z,18.18
2023-10-21T10:53:00.900Z,18.07
2023-10-21T10:54:13.547Z,18.08
2023-10-21T10:55:05.525Z,18.02
2023-10-21T10:55:56.012Z,18.06
2023-10-21T10:56:50.382Z,18.08
2023-10-21T10:57:41.626Z,18.01
2023-10-21T10:58:33.365Z,18.04
2023-10-21T10:59:25.455Z,18.07
2023-10-21T11:00:22.096Z,18.10
2023-10-21T11:01:28.427Z,18.05
2023-10-21T11:02:22.406Z,18.01
2023-10-21T11:03:35.087Z,18.15
2023-10-21T11:04:27.122Z,18.20
2023-10-21T11:05:21.402Z,18.26
2023-10-21T11:06:13.550Z,18.33
2023-10-21T11:07:04.899Z,18.41
2023-10-21T11:07:56.542Z,18.51
2023-10-21T11:08:47.688Z,18.58
2023-10-21T11:09:39.425Z,18.62
2023-10-21T11:10:31.051Z,18.66
2023-10-21T11:11:21.902Z,18.65
2023-10-21T11:12:17.295Z,18.77